createdAt,value
2022-11-29T00:01:35.376Z,8.00
2022-11-29T00:04:03.175Z,7.90
2022-11-29T00:06:32.095Z,7.90
2022-11-29T00:09:00.866Z,8.40
2022-11-29T00:11:51.072Z,7.90
2022-11-29T00:14:20.236Z,8.00
2022-11-29T00:16:50.771Z,8.00
2022-11-29T00:19:18.017Z,8.00
2022-11-29T00:21:45.046Z,8.00
2022-11-29T00:24:12.167Z,8.00
2022-11-29T00:26:40.457Z,8.00
2022-11-29T00:31:34.799Z,8.00
2022-11-29T00:34:04.916Z,8.00
2022-11-29T00:36:31.804Z,8.00
2022-11-29T00:43:55.146Z,8.00
2022-11-29T00:48:49.639Z,8.00
2022-11-29T00:53:43.934Z,8.00
2022-11-29T01:01:06.866Z,8.00
2022-11-29T01:03:35.015Z,8.10
2022-11-29T01:06:02.260Z,8.00
2022-11-29T01:11:06.106Z,8.00
2022-11-29T01:13:33.220Z,8.00
2022-11-29T01:18:30.460Z,8.00
2022-11-29T01:21:01.942Z,8.00
2022-11-29T01:23:29.263Z,8.00
2022-11-29T01:25:57.744Z,8.10
2022-11-29T01:28:24.895Z,10.10
2022-11-29T01:33:19.385Z,8.00
2022-11-29T01:35:49.672Z,8.10
2022-11-29T01:43:16.837Z,8.00
2022-11-29T01:45:45.017Z,8.00
2022-11-29T01:48:14.181Z,8.00
2022-11-29T01:50:42.550Z,8.00
2022-11-29T01:53:13.871Z,8.00
2022-11-29T01:55:45.430Z,8.00
2022-11-29T01:58:12.836Z,8.00
2022-11-29T02:03:10.599Z,8.00
2022-11-29T02:05:40.881Z,8.00
2022-11-29T02:08:11.132Z,8.00
2022-11-29T02:10:51.417Z,8.00
2022-11-29T02:13:27.051Z,7.90
2022-11-29T02:16:03.656Z,7.90
2022-11-29T02:18:40.976Z,7.90
2022-11-29T02:21:22.069Z,8.10
2022-11-29T02:24:21.270Z,8.00
2022-11-29T02:27:14.329Z,8.00
2022-11-29T02:30:23.424Z,8.00
2022-11-29T02:33:23.125Z,8.00
2022-11-29T02:36:15.110Z,8.00
2022-11-29T02:39:00.768Z,8.00
2022-11-29T02:41:46.272Z,8.00
2022-11-29T02:44:40.897Z,8.00
2022-11-29T02:47:17.725Z,8.00
2022-11-29T02:50:09.004Z,8.00
2022-11-29T02:52:45.132Z,8.30
2022-11-29T02:55:20.826Z,8.00
2022-11-29T02:57:55.067Z,8.00
2022-11-29T03:00:23.682Z,8.00
2022-11-29T03:02:55.804Z,8.00
2022-11-29T03:05:32.289Z,8.00
2022-11-29T03:08:05.703Z,7.90
2022-11-29T03:10:42.001Z,7.90
2022-11-29T03:13:20.115Z,8.00
2022-11-29T03:15:56.346Z,7.00
2022-11-29T03:18:35.281Z,8.00
2022-11-29T03:21:18.516Z,8.00
2022-11-29T03:23:48.592Z,8.00
2022-11-29T03:26:18.738Z,8.10
2022-11-29T03:28:48.909Z,8.10
2022-11-29T03:31:19.014Z,8.00
2022-11-29T03:33:48.468Z,8.00
2022-11-29T03:36:26.962Z,8.00
2022-11-29T03:38:58.786Z,8.00
2022-11-29T03:41:30.647Z,8.00
2022-11-29T03:44:02.977Z,8.00
2022-11-29T03:46:36.692Z,8.00
2022-11-29T03:49:09.514Z,8.00
2022-11-29T03:51:51.199Z,8.00
2022-11-29T03:54:22.669Z,8.00
2022-11-29T03:56:50.189Z,8.00
2022-11-29T03:59:29.302Z,8.00
2022-11-29T04:02:09.334Z,8.00
2022-11-29T04:04:45.899Z,8.00
2022-11-29T04:07:30.747Z,8.00
2022-11-29T04:10:14.687Z,8.00
2022-11-29T04:12:57.672Z,8.20
2022-11-29T04:15:49.952Z,8.00
2022-11-29T04:19:00.261Z,8.00
2022-11-29T04:21:33.713Z,8.00
2022-11-29T04:24:28.556Z,8.00
2022-11-29T04:27:28.960Z,8.00
2022-11-29T04:30:06.728Z,8.00
2022-11-29T04:32:55.787Z,8.00
2022-11-29T04:35:42.923Z,9.20
2022-11-29T04:38:36.339Z,8.00
2022-11-29T04:41:19.868Z,8.00
2022-11-29T04:44:27.428Z,8.20
2022-11-29T04:47:28.476Z,8.00
2022-11-29T04:50:15.115Z,8.10
2022-11-29T04:53:08.673Z,8.10
2022-11-29T04:55:43.814Z,8.10
2022-11-29T04:58:20.946Z,8.10
2022-11-29T05:00:59.792Z,8.10
2022-11-29T05:03:39.131Z,8.10
2022-11-29T05:06:20.300Z,8.10
2022-11-29T05:08:57.160Z,8.10
2022-11-29T05:11:35.128Z,9.40
2022-11-29T05:14:11.989Z,8.10
2022-11-29T05:17:03.901Z,8.10
2022-11-29T05:19:51.855Z,10.10
2022-11-29T05:22:31.595Z,8.40
2022-11-29T05:25:10.818Z,8.10
2022-11-29T05:27:45.154Z,8.10
2022-11-29T05:30:16.001Z,8.10
2022-11-29T05:32:55.777Z,8.10
2022-11-29T05:35:51.452Z,8.00
2022-11-29T05:38:49.434Z,8.00
2022-11-29T05:41:44.422Z,8.10
2022-11-29T05:44:16.795Z,8.10
2022-11-29T05:49:25.877Z,8.10
2022-11-29T05:52:03.987Z,8.10
2022-11-29T05:54:34.980Z,8.10
2022-11-29T05:57:13.904Z,8.00
2022-11-29T05:59:42.795Z,8.10
2022-11-29T06:02:22.797Z,8.10
2022-11-29T06:05:03.976Z,8.10
2022-11-29T06:07:38.952Z,8.00
2022-11-29T06:10:11.554Z,8.00
2022-11-29T06:12:39.801Z,8.00
2022-11-29T06:15:32.136Z,8.00
2022-11-29T06:18:16.004Z,8.00
2022-11-29T06:20:58.600Z,8.00
2022-11-29T06:23:42.249Z,8.00
2022-11-29T06:26:26.595Z,8.10
2022-11-29T06:29:02.568Z,9.60
2022-11-29T06:31:34.146Z,8.10
2022-11-29T06:34:07.363Z,8.10
2022-11-29T06:36:42.883Z,8.10
2022-11-29T06:39:10.748Z,8.10
2022-11-29T06:41:38.027Z,8.10
2022-11-29T06:44:06.086Z,8.10
2022-11-29T06:46:45.470Z,8.10
2022-11-29T06:49:18.693Z,8.10
2022-11-29T06:52:01.035Z,8.10
2022-11-29T06:54:48.234Z,8.10
2022-11-29T06:57:23.565Z,8.20
2022-11-29T07:00:05.249Z,8.20
2022-11-29T07:02:52.055Z,8.20
2022-11-29T07:05:24.215Z,8.20
2022-11-29T07:07:56.008Z,8.20
2022-11-29T07:10:23.895Z,8.20
2022-11-29T07:12:51.768Z,8.20
2022-11-29T07:15:21.300Z,8.20
2022-11-29T07:17:58.705Z,8.20
2022-11-29T07:20:32.436Z,8.20
2022-11-29T07:23:10.298Z,8.20
2022-11-29T07:25:48.829Z,8.20
2022-11-29T07:28:28.008Z,8.20
2022-11-29T07:31:02.793Z,8.20
2022-11-29T07:33:41.509Z,8.20
2022-11-29T07:36:15.717Z,8.20
2022-11-29T07:38:55.531Z,8.30
2022-11-29T07:41:29.656Z,8.30
2022-11-29T07:44:03.947Z,8.30
2022-11-29T07:46:30.954Z,8.30
2022-11-29T07:48:58.177Z,8.30
2022-11-29T07:51:25.682Z,8.40
2022-11-29T07:53:54.040Z,8.40
2022-11-29T07:56:20.957Z,8.30
2022-11-29T07:58:48.044Z,8.20
2022-11-29T08:03:42.557Z,8.20
2022-11-29T08:06:09.474Z,8.80
2022-11-29T08:11:12.912Z,8.20
2022-11-29T08:13:39.811Z,8.30
2022-11-29T08:18:35.817Z,8.30
2022-11-29T08:21:06.233Z,8.40
2022-11-29T08:23:33.206Z,8.40
2022-11-29T08:26:00.780Z,8.40
2022-11-29T08:28:29.197Z,8.40
2022-11-29T08:31:01.296Z,8.40
2022-11-29T08:33:28.361Z,8.40
2022-11-29T08:35:55.255Z,8.50
2022-11-29T08:38:22.232Z,8.50
2022-11-29T08:40:49.181Z,8.50
2022-11-29T08:43:16.086Z,8.60
2022-11-29T08:45:44.538Z,8.50
2022-11-29T08:48:13.790Z,8.60
2022-11-29T08:50:40.712Z,8.60
2022-11-29T08:53:27.121Z,8.60
2022-11-29T08:55:54.104Z,8.60
2022-11-29T08:58:21.519Z,8.70
2022-11-29T09:00:49.962Z,8.60
2022-11-29T09:03:35.496Z,8.70
2022-11-29T09:06:12.028Z,8.60
2022-11-29T09:08:40.234Z,8.60
2022-11-29T09:11:08.639Z,8.60
2022-11-29T09:13:35.644Z,8.70
2022-11-29T09:16:09.120Z,8.70
2022-11-29T09:18:38.487Z,8.70
2022-11-29T09:21:06.811Z,8.70
2022-11-29T09:23:33.716Z,8.70
2022-11-29T09:26:00.681Z,8.80
2022-11-29T09:28:27.966Z,8.80
2022-11-29T09:33:23.572Z,8.90
2022-11-29T09:38:17.801Z,8.90
2022-11-29T09:40:52.873Z,8.90
2022-11-29T09:43:26.129Z,8.90
2022-11-29T09:45:59.584Z,8.90
2022-11-29T09:48:39.276Z,8.90
2022-11-29T09:51:17.638Z,9.00
2022-11-29T09:53:58.288Z,9.00
2022-11-29T09:56:34.325Z,9.00
2022-11-29T09:59:07.226Z,9.10
2022-11-29T10:01:38.942Z,9.10
2022-11-29T10:04:14.304Z,9.10
2022-11-29T10:06:44.959Z,9.10
2022-11-29T10:09:17.540Z,9.10
2022-11-29T10:11:56.883Z,9.10
2022-11-29T10:14:30.096Z,9.10
2022-11-29T10:17:04.865Z,9.20
2022-11-29T10:19:37.712Z,9.20
2022-11-29T10:22:10.716Z,9.20
2022-11-29T10:24:38.944Z,9.20
2022-11-29T10:27:12.697Z,9.70
2022-11-29T10:29:39.757Z,9.30
2022-11-29T10:32:13.825Z,9.30
2022-11-29T10:34:43.768Z,9.10
2022-11-29T10:37:14.305Z,9.20
2022-11-29T10:39:45.079Z,11.50
2022-11-29T10:42:35.054Z,9.10
2022-11-29T10:45:02.937Z,9.10
2022-11-29T10:47:30.829Z,9.10
2022-11-29T10:49:59.612Z,9.10
2022-11-29T10:52:26.576Z,9.10
2022-11-29T10:54:57.876Z,9.20
2022-11-29T10:57:25.039Z,9.20
2022-11-29T11:00:00.325Z,9.30
2022-11-29T11:02:27.990Z,9.30
2022-11-29T11:04:55.089Z,9.40
2022-11-29T11:07:28.062Z,9.30
2022-11-29T11:09:57.495Z,9.40
2022-11-29T11:12:27.702Z,9.40
2022-11-29T11:15:15.601Z,9.40
2022-11-29T11:17:56.590Z,9.40
2022-11-29T11:20:24.789Z,9.40
2022-11-29T11:22:59.710Z,9.40
2022-11-29T11:25:30.260Z,9.50
2022-11-29T11:28:10.901Z,9.40
2022-11-29T11:30:38.081Z,9.40
2022-11-29T11:33:09.377Z,9.40
2022-11-29T11:35:37.226Z,9.40
2022-11-29T11:38:05.510Z,9.40
2022-11-29T11:40:34.641Z,9.40
2022-11-29T11:43:03.290Z,9.50
2022-11-29T11:45:34.062Z,9.10
2022-11-29T11:50:32.647Z,9.70
2022-11-29T11:53:04.808Z,9.70
2022-11-29T11:55:37.466Z,9.70
2022-11-29T11:58:16.357Z,9.70
2022-11-29T12:01:05.627Z,9.60
2022-11-29T12:03:43.775Z,9.60
2022-11-29T12:06:27.161Z,9.60
2022-11-29T12:08:58.549Z,9.60
2022-11-29T12:11:29.380Z,9.60
2022-11-29T12:13:59.650Z,11.10
2022-11-29T12:16:31.790Z,9.60
2022-11-29T12:19:03.067Z,12.10
2022-11-29T12:21:37.556Z,9.60
2022-11-29T12:24:16.359Z,9.60
2022-11-29T12:27:00.040Z,9.70
2022-11-29T12:29:31.553Z,9.70
2022-11-29T12:32:15.489Z,9.70
2022-11-29T12:35:05.039Z,9.70
2022-11-29T12:37:39.428Z,9.80
2022-11-29T12:40:14.368Z,9.70
2022-11-29T12:42:51.466Z,9.80
2022-11-29T12:45:29.873Z,9.80
2022-11-29T12:48:06.515Z,9.80
2022-11-29T12:50:44.420Z,9.90
2022-11-29T12:53:27.736Z,9.90
2022-11-29T12:56:04.830Z,9.90
2022-11-29T12:58:45.987Z,9.90
2022-11-29T13:01:21.344Z,10.20
2022-11-29T13:03:56.694Z,10.00
2022-11-29T13:06:30.455Z,10.00
2022-11-29T13:09:26.024Z,10.00
2022-11-29T13:11:55.839Z,10.10
2022-11-29T13:14:46.161Z,10.10
2022-11-29T13:17:24.343Z,11.20
2022-11-29T13:19:55.889Z,10.20
2022-11-29T13:22:29.138Z,10.10
2022-11-29T13:25:01.272Z,10.10
2022-11-29T13:27:34.640Z,10.20
2022-11-29T13:30:04.619Z,10.20
2022-11-29T13:32:35.653Z,10.20
2022-11-29T13:35:08.598Z,10.20
2022-11-29T13:37:44.038Z,10.10
2022-11-29T13:40:21.883Z,10.10
2022-11-29T13:45:56.000Z,9.80
2022-11-29T13:48:36.994Z,9.70
2022-11-29T13:51:32.220Z,9.70
2022-11-29T13:54:04.607Z,9.80
2022-11-29T13:56:42.854Z,9.80
2022-11-29T13:59:20.897Z,9.90
2022-11-29T14:01:51.589Z,9.90
2022-11-29T14:04:35.879Z,10.00
2022-11-29T14:07:08.688Z,10.00
2022-11-29T14:09:58.349Z,10.00
2022-11-29T14:12:36.931Z,9.90
2022-11-29T14:15:16.538Z,10.00
2022-11-29T14:17:50.699Z,10.00
2022-11-29T14:21:08.583Z,10.00
2022-11-29T14:23:40.615Z,10.00
2022-11-29T14:26:28.816Z,10.10
2022-11-29T14:28:57.048Z,10.10
2022-11-29T14:31:46.990Z,10.00
2022-11-29T14:34:17.196Z,10.10
2022-11-29T14:36:48.724Z,10.10
2022-11-29T14:39:29.780Z,10.00
2022-11-29T14:42:05.472Z,10.00
2022-11-29T14:44:34.361Z,10.00
2022-11-29T14:47:05.007Z,10.00
2022-11-29T14:49:41.989Z,10.00
2022-11-29T14:52:18.267Z,10.00
2022-11-29T14:54:56.170Z,10.00
2022-11-29T14:57:52.709Z,10.00
2022-11-29T15:00:21.812Z,10.00
2022-11-29T15:02:51.997Z,9.90
2022-11-29T15:05:24.492Z,9.90
2022-11-29T15:08:03.004Z,12.10
2022-11-29T15:10:35.622Z,9.90
2022-11-29T15:13:04.370Z,10.00
2022-11-29T15:15:44.520Z,9.90
2022-11-29T15:18:26.914Z,10.10
2022-11-29T15:21:13.673Z,10.00
2022-11-29T15:23:42.575Z,10.00
2022-11-29T15:26:17.952Z,9.90
2022-11-29T15:31:17.984Z,10.00
2022-11-29T15:33:48.775Z,9.90
2022-11-29T15:36:19.031Z,10.00
2022-11-29T15:38:47.983Z,9.90
2022-11-29T15:41:26.067Z,10.00
2022-11-29T15:43:56.141Z,10.00
2022-11-29T15:46:26.998Z,10.00
2022-11-29T15:49:16.134Z,9.90
2022-11-29T15:51:50.145Z,9.80
2022-11-29T15:54:21.942Z,9.90
2022-11-29T15:56:52.098Z,9.80
2022-11-29T15:59:27.839Z,9.90
2022-11-29T16:01:59.543Z,9.90
2022-11-29T16:04:27.281Z,9.80
2022-11-29T16:06:56.788Z,9.90
2022-11-29T16:09:35.301Z,9.90
2022-11-29T16:14:30.021Z,9.90
2022-11-29T16:16:58.912Z,9.90
2022-11-29T16:19:31.712Z,9.80
2022-11-29T16:22:03.133Z,9.80
2022-11-29T16:27:01.883Z,9.80
2022-11-29T16:29:33.940Z,11.10
2022-11-29T16:32:12.922Z,9.80
2022-11-29T16:34:42.511Z,9.80
2022-11-29T16:37:16.640Z,9.80
2022-11-29T16:39:46.034Z,9.80
2022-11-29T16:42:21.948Z,10.40
2022-11-29T16:45:02.867Z,9.80
2022-11-29T16:47:32.082Z,9.80
2022-11-29T16:50:15.799Z,9.00
2022-11-29T16:52:44.769Z,11.40
2022-11-29T16:57:39.797Z,9.70
2022-11-29T17:00:12.519Z,9.70
2022-11-29T17:02:39.446Z,9.70
2022-11-29T17:07:37.576Z,9.80
2022-11-29T17:10:08.426Z,9.70
2022-11-29T17:12:35.399Z,9.80
2022-11-29T17:15:02.303Z,9.80
2022-11-29T17:22:23.683Z,9.80
2022-11-29T17:24:50.950Z,9.80
2022-11-29T17:27:19.617Z,9.70
2022-11-29T17:29:46.519Z,9.70
2022-11-29T17:39:35.261Z,9.70
2022-11-29T17:44:30.643Z,9.70
2022-11-29T17:46:57.397Z,9.60
2022-11-29T17:51:53.475Z,9.60
2022-11-29T17:56:48.432Z,9.60
2022-11-29T17:59:15.405Z,9.70
2022-11-29T18:01:43.786Z,9.70
2022-11-29T18:04:10.808Z,9.60
2022-11-29T18:06:39.752Z,9.70
2022-11-29T18:09:08.322Z,9.70
2022-11-29T18:11:45.230Z,9.70
2022-11-29T18:14:16.353Z,9.70
2022-11-29T18:16:45.523Z,9.70
2022-11-29T18:19:14.684Z,9.60
2022-11-29T18:21:42.702Z,9.70
2022-11-29T18:24:10.402Z,9.60
2022-11-29T18:26:39.015Z,9.60
2022-11-29T18:29:07.004Z,9.50
2022-11-29T18:31:35.371Z,9.50
2022-11-29T18:34:12.908Z,9.60
2022-11-29T18:36:42.927Z,9.60
2022-11-29T18:39:13.895Z,9.60
2022-11-29T18:41:42.577Z,9.60
2022-11-29T18:44:11.195Z,9.70
2022-11-29T18:46:39.560Z,9.60
2022-11-29T18:49:09.648Z,9.80
2022-11-29T18:51:37.142Z,9.60
2022-11-29T18:54:05.010Z,9.60
2022-11-29T18:56:34.549Z,9.60
2022-11-29T18:59:03.521Z,9.60
2022-11-29T19:01:32.361Z,9.60
2022-11-29T19:04:00.648Z,9.70
2022-11-29T19:06:37.136Z,9.60
2022-11-29T19:09:07.116Z,9.60
2022-11-29T19:11:34.453Z,9.60
2022-11-29T19:14:03.960Z,9.60
2022-11-29T19:16:34.156Z,9.60
2022-11-29T19:19:01.581Z,9.60
2022-11-29T19:21:32.449Z,9.60
2022-11-29T19:24:01.181Z,9.60
2022-11-29T19:26:30.350Z,9.60
2022-11-29T19:28:59.510Z,9.60
2022-11-29T19:31:27.856Z,9.60
2022-11-29T19:33:55.412Z,9.60
2022-11-29T19:36:24.831Z,8.60
2022-11-29T19:38:54.624Z,9.60
2022-11-29T19:41:23.326Z,9.60
2022-11-29T19:43:50.511Z,9.60
2022-11-29T19:46:19.166Z,9.50
2022-11-29T19:51:17.407Z,9.60
2022-11-29T19:53:45.293Z,9.60
2022-11-29T19:56:16.078Z,9.50
2022-11-29T19:58:43.698Z,9.50
2022-11-29T20:01:12.562Z,9.60
2022-11-29T20:03:40.222Z,9.50
2022-11-29T20:06:08.448Z,9.60
2022-11-29T20:08:35.707Z,9.50
2022-11-29T20:11:06.389Z,9.50
2022-11-29T20:13:34.706Z,9.50
2022-11-29T20:16:02.411Z,9.50
2022-11-29T20:18:31.079Z,9.50
2022-11-29T20:21:03.895Z,9.50
2022-11-29T20:23:31.013Z,9.60
2022-11-29T20:28:25.206Z,9.60
2022-11-29T20:30:54.465Z,9.70
2022-11-29T20:33:25.006Z,9.60
2022-11-29T20:36:02.202Z,9.50
2022-11-29T20:38:36.925Z,9.60
2022-11-29T20:41:12.529Z,9.80
2022-11-29T20:43:46.932Z,9.60
2022-11-29T20:46:15.728Z,11.90
2022-11-29T20:48:43.072Z,9.60
2022-11-29T20:51:17.180Z,9.60
2022-11-29T20:53:46.157Z,9.60
2022-11-29T20:56:13.101Z,9.60
2022-11-29T20:58:40.270Z,9.60
2022-11-29T21:01:07.591Z,9.60
2022-11-29T21:03:36.058Z,9.60
2022-11-29T21:06:05.216Z,9.60
2022-11-29T21:08:33.198Z,9.60
2022-11-29T21:11:04.852Z,9.60
2022-11-29T21:13:32.628Z,9.60
2022-11-29T21:16:00.277Z,9.50
2022-11-29T21:18:29.695Z,9.50
2022-11-29T21:21:18.849Z,9.50
2022-11-29T21:23:52.875Z,9.50
2022-11-29T21:26:24.455Z,9.60
2022-11-29T21:29:03.891Z,9.50
2022-11-29T21:33:58.832Z,9.60
2022-11-29T21:36:27.301Z,9.40
2022-11-29T21:38:55.396Z,9.40
2022-11-29T21:41:22.829Z,9.40
2022-11-29T21:44:06.055Z,9.40
2022-11-29T21:46:33.985Z,9.50
2022-11-29T21:49:00.922Z,9.90
2022-11-29T21:51:29.218Z,9.50
2022-11-29T21:53:56.114Z,9.70
2022-11-29T21:56:23.123Z,9.50
2022-11-29T21:58:50.144Z,9.60
2022-11-29T22:01:18.638Z,9.60
2022-11-29T22:03:45.674Z,9.40
2022-11-29T22:06:16.389Z,9.30
2022-11-29T22:08:44.858Z,9.40
2022-11-29T22:11:15.280Z,9.40
2022-11-29T22:14:02.472Z,9.50
2022-11-29T22:16:30.002Z,9.50
2022-11-29T22:18:57.010Z,9.50
2022-11-29T22:21:24.093Z,9.50
2022-11-29T22:23:53.438Z,9.50
2022-11-29T22:26:20.375Z,9.50
2022-11-29T22:28:47.319Z,9.50
2022-11-29T22:31:14.253Z,9.60
2022-11-29T22:36:10.439Z,9.50
2022-11-29T22:38:38.298Z,9.50
2022-11-29T22:41:08.370Z,9.50
2022-11-29T22:43:35.889Z,9.60
2022-11-29T22:46:07.181Z,9.50
2022-11-29T22:48:38.654Z,9.50
2022-11-29T22:51:07.918Z,9.50
2022-11-29T22:53:35.357Z,9.50
2022-11-29T22:56:04.184Z,9.50
2022-11-29T22:58:32.639Z,9.40
2022-11-29T23:01:04.527Z,9.40
2022-11-29T23:03:33.730Z,9.40
2022-11-29T23:06:05.801Z,9.40
2022-11-29T23:08:33.157Z,9.30
2022-11-29T23:11:00.565Z,9.30
2022-11-29T23:13:27.473Z,9.20
2022-11-29T23:15:55.778Z,9.10
2022-11-29T23:18:22.680Z,9.20
2022-11-29T23:20:49.581Z,9.20
2022-11-29T23:23:16.521Z,9.10
2022-11-29T23:25:48.386Z,9.10
2022-11-29T23:30:43.024Z,8.90
2022-11-29T23:33:11.502Z,8.80
2022-11-29T23:35:38.534Z,8.80
2022-11-29T23:38:06.053Z,8.70
2022-11-29T23:40:33.120Z,8.70
2022-11-29T23:43:00.149Z,8.80
2022-11-29T23:45:27.102Z,8.90
2022-11-29T23:50:23.287Z,8.80
2022-11-29T23:52:54.022Z,8.80
2022-11-29T23:55:21.463Z,8.90
